sensor_id;sensor_type;location;lat;lon;timestamp;P1;durP1;ratioP1;P2;durP2;ratioP2
61756;SDS011;57225;61.460;24.060;2023-07-13T00:00:09;2.58;;;2.00;;
61756;SDS011;57225;61.460;24.060;2023-07-13T00:02:54;4.05;;;2.10;;
61756;SDS011;57225;61.460;24.060;2023-07-13T00:05:39;2.47;;;2.00;;
61756;SDS011;57225;61.460;24.060;2023-07-13T00:08:24;4.53;;;2.20;;
61756;SDS011;57225;61.460;24.060;2023-07-13T00:11:09;2.22;;;1.95;;
61756;SDS011;57225;61.460;24.060;2023-07-13T00:13:54;3.67;;;2.00;;
61756;SDS011;57225;61.460;24.060;2023-07-13T00:16:40;2.95;;;2.20;;
61756;SDS011;57225;61.460;24.060;2023-07-13T00:19:27;6.83;;;2.40;;
61756;SDS011;57225;61.460;24.060;2023-07-13T00:22:11;2.72;;;2.20;;
61756;SDS011;57225;61.460;24.060;2023-07-13T00:28:11;6.40;;;2.45;;
61756;SDS011;57225;61.460;24.060;2023-07-13T00:30:56;3.65;;;2.22;;
61756;SDS011;57225;61.460;24.060;2023-07-13T00:33:41;3.25;;;2.00;;
61756;SDS011;57225;61.460;24.060;2023-07-13T00:36:25;4.40;;;2.35;;
61756;SDS011;57225;61.460;24.060;2023-07-13T00:39:10;2.95;;;2.08;;
61756;SDS011;57225;61.460;24.060;2023-07-13T00:41:54;5.80;;;2.17;;
61756;SDS011;57225;61.460;24.060;2023-07-13T00:44:39;4.70;;;2.15;;
61756;SDS011;57225;61.460;24.060;2023-07-13T00:47:23;3.90;;;2.30;;
61756;SDS011;57225;61.460;24.060;2023-07-13T00:50:09;4.07;;;2.50;;
61756;SDS011;57225;61.460;24.060;2023-07-13T00:53:14;4.28;;;2.47;;
61756;SDS011;57225;61.460;24.060;2023-07-13T00:56:08;3.50;;;2.40;;
61756;SDS011;57225;61.460;24.060;2023-07-13T00:58:53;5.80;;;2.55;;
61756;SDS011;57225;61.460;24.060;2023-07-13T01:01:39;4.07;;;2.60;;
61756;SDS011;57225;61.460;24.060;2023-07-13T01:04:24;2.90;;;2.20;;
61756;SDS011;57225;61.460;24.060;2023-07-13T01:07:09;8.45;;;2.20;;
61756;SDS011;57225;61.460;24.060;2023-07-13T01:09:55;4.32;;;2.25;;
61756;SDS011;57225;61.460;24.060;2023-07-13T01:12:40;2.92;;;2.00;;
61756;SDS011;57225;61.460;24.060;2023-07-13T01:15:35;3.45;;;2.60;;
61756;SDS011;57225;61.460;24.060;2023-07-13T01:18:24;7.93;;;2.65;;
61756;SDS011;57225;61.460;24.060;2023-07-13T01:21:10;6.18;;;2.50;;
61756;SDS011;57225;61.460;24.060;2023-07-13T01:23:54;2.90;;;2.30;;
61756;SDS011;57225;61.460;24.060;2023-07-13T01:26:39;5.50;;;2.20;;
61756;SDS011;57225;61.460;24.060;2023-07-13T01:29:24;4.75;;;2.30;;
61756;SDS011;57225;61.460;24.060;2023-07-13T01:32:19;3.72;;;2.42;;
61756;SDS011;57225;61.460;24.060;2023-07-13T01:35:07;4.28;;;2.50;;
61756;SDS011;57225;61.460;24.060;2023-07-13T01:37:52;2.92;;;2.38;;
61756;SDS011;57225;61.460;24.060;2023-07-13T01:40:37;3.30;;;2.47;;
61756;SDS011;57225;61.460;24.060;2023-07-13T01:43:22;7.43;;;2.25;;
61756;SDS011;57225;61.460;24.060;2023-07-13T01:46:07;3.35;;;2.22;;
61756;SDS011;57225;61.460;24.060;2023-07-13T01:48:51;3.80;;;2.30;;
61756;SDS011;57225;61.460;24.060;2023-07-13T01:51:36;4.10;;;2.53;;
61756;SDS011;57225;61.460;24.060;2023-07-13T01:54:20;3.83;;;2.50;;
61756;SDS011;57225;61.460;24.060;2023-07-13T01:57:05;2.83;;;2.03;;
61756;SDS011;57225;61.460;24.060;2023-07-13T01:59:49;4.10;;;2.05;;
61756;SDS011;57225;61.460;24.060;2023-07-13T02:02:34;2.72;;;1.95;;
61756;SDS011;57225;61.460;24.060;2023-07-13T02:05:18;6.70;;;2.65;;
61756;SDS011;57225;61.460;24.060;2023-07-13T02:08:03;3.85;;;2.30;;
61756;SDS011;57225;61.460;24.060;2023-07-13T02:10:48;4.75;;;2.17;;
61756;SDS011;57225;61.460;24.060;2023-07-13T02:13:32;5.65;;;2.40;;
61756;SDS011;57225;61.460;24.060;2023-07-13T02:16:18;2.90;;;2.00;;
61756;SDS011;57225;61.460;24.060;2023-07-13T02:19:02;6.00;;;2.50;;
61756;SDS011;57225;61.460;24.060;2023-07-13T02:21:47;3.20;;;2.38;;
61756;SDS011;57225;61.460;24.060;2023-07-13T02:24:32;2.72;;;2.00;;
61756;SDS011;57225;61.460;24.060;2023-07-13T02:27:17;4.82;;;2.15;;
61756;SDS011;57225;61.460;24.060;2023-07-13T02:30:01;2.70;;;2.10;;
61756;SDS011;57225;61.460;24.060;2023-07-13T02:32:47;2.55;;;2.08;;
61756;SDS011;57225;61.460;24.060;2023-07-13T02:35:31;2.80;;;2.30;;
61756;SDS011;57225;61.460;24.060;2023-07-13T02:38:16;2.95;;;2.17;;
61756;SDS011;57225;61.460;24.060;2023-07-13T02:41:00;3.28;;;2.20;;
61756;SDS011;57225;61.460;24.060;2023-07-13T02:43:45;4.22;;;2.40;;
61756;SDS011;57225;61.460;24.060;2023-07-13T02:46:30;3.65;;;2.40;;
61756;SDS011;57225;61.460;24.060;2023-07-13T02:49:16;4.18;;;2.30;;
61756;SDS011;57225;61.460;24.060;2023-07-13T02:52:01;5.28;;;2.40;;
61756;SDS011;57225;61.460;24.060;2023-07-13T02:54:45;3.78;;;2.38;;
61756;SDS011;57225;61.460;24.060;2023-07-13T02:57:30;2.28;;;1.88;;
61756;SDS011;57225;61.460;24.060;2023-07-13T03:00:16;4.05;;;2.53;;
61756;SDS011;57225;61.460;24.060;2023-07-13T03:03:01;6.88;;;2.40;;
61756;SDS011;57225;61.460;24.060;2023-07-13T03:05:46;4.47;;;2.50;;
61756;SDS011;57225;61.460;24.060;2023-07-13T03:08:34;3.83;;;2.50;;
61756;SDS011;57225;61.460;24.060;2023-07-13T03:11:19;3.35;;;2.05;;
61756;SDS011;57225;61.460;24.060;2023-07-13T03:14:04;4.45;;;2.38;;
61756;SDS011;57225;61.460;24.060;2023-07-13T03:16:49;3.30;;;2.08;;
61756;SDS011;57225;61.460;24.060;2023-07-13T03:19:33;3.97;;;2.70;;
61756;SDS011;57225;61.460;24.060;2023-07-13T03:22:18;4.10;;;2.55;;
61756;SDS011;57225;61.460;24.060;2023-07-13T03:25:21;3.17;;;2.22;;
61756;SDS011;57225;61.460;24.060;2023-07-13T03:28:05;4.97;;;2.63;;
61756;SDS011;57225;61.460;24.060;2023-07-13T03:30:52;5.00;;;2.60;;
61756;SDS011;57225;61.460;24.060;2023-07-13T03:33:43;3.17;;;2.42;;
61756;SDS011;57225;61.460;24.060;2023-07-13T03:36:28;3.97;;;2.47;;
61756;SDS011;57225;61.460;24.060;2023-07-13T03:39:14;3.05;;;2.20;;
61756;SDS011;57225;61.460;24.060;2023-07-13T03:41:58;2.78;;;2.08;;
61756;SDS011;57225;61.460;24.060;2023-07-13T03:44:43;11.55;;;2.67;;
61756;SDS011;57225;61.460;24.060;2023-07-13T03:47:34;9.48;;;2.58;;
61756;SDS011;57225;61.460;24.060;2023-07-13T03:50:18;3.45;;;2.28;;
61756;SDS011;57225;61.460;24.060;2023-07-13T03:53:21;6.03;;;2.53;;
61756;SDS011;57225;61.460;24.060;2023-07-13T03:56:06;6.28;;;2.30;;
61756;SDS011;57225;61.460;24.060;2023-07-13T03:58:51;3.53;;;2.25;;
61756;SDS011;57225;61.460;24.060;2023-07-13T04:01:35;4.32;;;2.50;;
61756;SDS011;57225;61.460;24.060;2023-07-13T04:04:19;6.20;;;2.30;;
61756;SDS011;57225;61.460;24.060;2023-07-13T04:07:04;5.95;;;2.85;;
61756;SDS011;57225;61.460;24.060;2023-07-13T04:09:51;3.47;;;2.70;;
61756;SDS011;57225;61.460;24.060;2023-07-13T04:12:38;4.25;;;2.38;;
61756;SDS011;57225;61.460;24.060;2023-07-13T04:15:23;3.20;;;2.22;;
61756;SDS011;57225;61.460;24.060;2023-07-13T04:18:07;5.13;;;2.50;;
61756;SDS011;57225;61.460;24.060;2023-07-13T04:20:52;5.68;;;2.50;;
61756;SDS011;57225;61.460;24.060;2023-07-13T04:23:37;3.15;;;2.22;;
61756;SDS011;57225;61.460;24.060;2023-07-13T04:26:22;4.35;;;2.53;;
61756;SDS011;57225;61.460;24.060;2023-07-13T04:29:07;9.73;;;2.45;;
61756;SDS011;57225;61.460;24.060;2023-07-13T04:31:51;3.78;;;2.30;;
61756;SDS011;57225;61.460;24.060;2023-07-13T04:34:36;3.53;;;2.28;;
61756;SDS011;57225;61.460;24.060;2023-07-13T04:37:23;6.65;;;2.28;;
61756;SDS011;57225;61.460;24.060;2023-07-13T04:40:10;3.95;;;2.70;;
61756;SDS011;57225;61.460;24.060;2023-07-13T04:42:56;7.90;;;2.50;;
61756;SDS011;57225;61.460;24.060;2023-07-13T04:45:40;5.53;;;2.28;;
61756;SDS011;57225;61.460;24.060;2023-07-13T04:48:25;6.55;;;2.30;;
61756;SDS011;57225;61.460;24.060;2023-07-13T04:51:10;5.22;;;2.30;;
61756;SDS011;57225;61.460;24.060;2023-07-13T04:53:55;3.05;;;2.28;;
61756;SDS011;57225;61.460;24.060;2023-07-13T04:56:39;6.35;;;2.10;;
61756;SDS011;57225;61.460;24.060;2023-07-13T04:59:24;13.70;;;2.97;;
61756;SDS011;57225;61.460;24.060;2023-07-13T05:02:08;4.63;;;2.25;;
61756;SDS011;57225;61.460;24.060;2023-07-13T05:04:52;2.58;;;1.92;;
61756;SDS011;57225;61.460;24.060;2023-07-13T05:07:37;4.90;;;2.53;;
61756;SDS011;57225;61.460;24.060;2023-07-13T05:10:21;8.68;;;2.40;;
61756;SDS011;57225;61.460;24.060;2023-07-13T05:13:07;2.72;;;2.28;;
61756;SDS011;57225;61.460;24.060;2023-07-13T05:15:55;3.67;;;2.33;;
61756;SDS011;57225;61.460;24.060;2023-07-13T05:18:45;3.17;;;2.30;;
61756;SDS011;57225;61.460;24.060;2023-07-13T05:21:29;2.22;;;2.00;;
61756;SDS011;57225;61.460;24.060;2023-07-13T05:24:13;3.08;;;2.28;;
61756;SDS011;57225;61.460;24.060;2023-07-13T05:26:58;6.00;;;2.40;;
61756;SDS011;57225;61.460;24.060;2023-07-13T05:29:46;3.20;;;2.05;;
61756;SDS011;57225;61.460;24.060;2023-07-13T05:32:30;5.53;;;2.38;;
61756;SDS011;57225;61.460;24.060;2023-07-13T05:35:15;5.57;;;2.20;;
61756;SDS011;57225;61.460;24.060;2023-07-13T05:38:00;3.47;;;2.25;;
61756;SDS011;57225;61.460;24.060;2023-07-13T05:40:47;6.47;;;2.70;;
61756;SDS011;57225;61.460;24.060;2023-07-13T05:43:32;4.70;;;2.25;;
61756;SDS011;57225;61.460;24.060;2023-07-13T05:46:17;2.65;;;2.17;;
61756;SDS011;57225;61.460;24.060;2023-07-13T05:49:02;3.22;;;2.08;;
61756;SDS011;57225;61.460;24.060;2023-07-13T05:51:46;4.65;;;2.22;;
61756;SDS011;57225;61.460;24.060;2023-07-13T05:54:31;2.25;;;2.03;;
61756;SDS011;57225;61.460;24.060;2023-07-13T05:57:15;3.72;;;2.30;;
61756;SDS011;57225;61.460;24.060;2023-07-13T06:00:00;2.55;;;1.80;;
61756;SDS011;57225;61.460;24.060;2023-07-13T06:02:45;2.50;;;2.05;;
61756;SDS011;57225;61.460;24.060;2023-07-13T06:05:29;3.20;;;2.38;;
61756;SDS011;57225;61.460;24.060;2023-07-13T06:08:14;4.63;;;2.20;;
61756;SDS011;57225;61.460;24.060;2023-07-13T06:11:05;4.25;;;1.98;;
61756;SDS011;57225;61.460;24.060;2023-07-13T06:13:51;2.75;;;1.83;;
61756;SDS011;57225;61.460;24.060;2023-07-13T06:16:36;4.10;;;2.00;;
61756;SDS011;57225;61.460;24.060;2023-07-13T06:19:20;2.67;;;2.20;;
61756;SDS011;57225;61.460;24.060;2023-07-13T06:22:05;4.90;;;2.10;;
61756;SDS011;57225;61.460;24.060;2023-07-13T06:24:55;3.35;;;2.17;;
61756;SDS011;57225;61.460;24.060;2023-07-13T06:28:02;2.70;;;2.08;;
61756;SDS011;57225;61.460;24.060;2023-07-13T06:30:47;2.42;;;1.73;;
61756;SDS011;57225;61.460;24.060;2023-07-13T06:33:32;3.55;;;1.90;;
61756;SDS011;57225;61.460;24.060;2023-07-13T06:36:17;2.25;;;1.73;;
61756;SDS011;57225;61.460;24.060;2023-07-13T06:39:02;5.97;;;1.80;;
61756;SDS011;57225;61.460;24.060;2023-07-13T06:41:47;1.92;;;1.67;;
61756;SDS011;57225;61.460;24.060;2023-07-13T06:44:31;5.88;;;2.10;;
61756;SDS011;57225;61.460;24.060;2023-07-13T06:47:16;16.50;;;2.17;;
61756;SDS011;57225;61.460;24.060;2023-07-13T06:50:00;4.35;;;1.77;;
61756;SDS011;57225;61.460;24.060;2023-07-13T06:52:45;4.85;;;1.83;;
61756;SDS011;57225;61.460;24.060;2023-07-13T06:55:29;2.67;;;1.70;;
61756;SDS011;57225;61.460;24.060;2023-07-13T06:58:15;2.38;;;1.90;;
61756;SDS011;57225;61.460;24.060;2023-07-13T07:01:00;2.65;;;1.77;;
61756;SDS011;57225;61.460;24.060;2023-07-13T07:03:45;4.47;;;2.10;;
61756;SDS011;57225;61.460;24.060;2023-07-13T07:06:30;6.55;;;1.88;;
61756;SDS011;57225;61.460;24.060;2023-07-13T07:09:15;17.98;;;4.85;;
61756;SDS011;57225;61.460;24.060;2023-07-13T07:12:00;3.55;;;2.10;;
61756;SDS011;57225;61.460;24.060;2023-07-13T07:14:44;4.95;;;1.73;;
61756;SDS011;57225;61.460;24.060;2023-07-13T07:17:29;2.17;;;1.65;;
61756;SDS011;57225;61.460;24.060;2023-07-13T07:20:14;3.97;;;1.67;;
61756;SDS011;57225;61.460;24.060;2023-07-13T07:22:59;3.33;;;1.90;;
61756;SDS011;57225;61.460;24.060;2023-07-13T07:25:43;3.65;;;1.90;;
61756;SDS011;57225;61.460;24.060;2023-07-13T07:28:30;4.40;;;1.70;;
61756;SDS011;57225;61.460;24.060;2023-07-13T07:31:14;5.00;;;1.90;;
61756;SDS011;57225;61.460;24.060;2023-07-13T07:33:59;1.80;;;1.50;;
61756;SDS011;57225;61.460;24.060;2023-07-13T07:36:43;1.67;;;1.52;;
61756;SDS011;57225;61.460;24.060;2023-07-13T07:39:28;2.20;;;1.58;;
61756;SDS011;57225;61.460;24.060;2023-07-13T07:42:13;7.90;;;1.50;;
61756;SDS011;57225;61.460;24.060;2023-07-13T07:44:57;2.00;;;1.40;;
61756;SDS011;57225;61.460;24.060;2023-07-13T07:47:42;2.42;;;1.23;;
61756;SDS011;57225;61.460;24.060;2023-07-13T07:50:27;2.00;;;1.58;;
61756;SDS011;57225;61.460;24.060;2023-07-13T07:56:22;2.38;;;1.58;;
61756;SDS011;57225;61.460;24.060;2023-07-13T07:59:06;1.83;;;1.50;;
61756;SDS011;57225;61.460;24.060;2023-07-13T08:01:51;9.70;;;1.50;;
61756;SDS011;57225;61.460;24.060;2023-07-13T08:04:35;1.40;;;1.30;;
61756;SDS011;57225;61.460;24.060;2023-07-13T08:07:20;2.83;;;1.73;;
61756;SDS011;57225;61.460;24.060;2023-07-13T08:10:08;1.88;;;1.52;;
61756;SDS011;57225;61.460;24.060;2023-07-13T08:12:52;1.60;;;1.45;;
61756;SDS011;57225;61.460;24.060;2023-07-13T08:15:37;4.40;;;1.42;;
61756;SDS011;57225;61.460;24.060;2023-07-13T08:18:21;1.48;;;1.35;;
61756;SDS011;57225;61.460;24.060;2023-07-13T08:21:06;3.60;;;1.48;;
61756;SDS011;57225;61.460;24.060;2023-07-13T08:23:51;2.53;;;1.60;;
61756;SDS011;57225;61.460;24.060;2023-07-13T08:26:36;1.73;;;1.40;;
61756;SDS011;57225;61.460;24.060;2023-07-13T08:29:20;3.15;;;1.70;;
61756;SDS011;57225;61.460;24.060;2023-07-13T08:32:06;4.07;;;1.65;;
61756;SDS011;57225;61.460;24.060;2023-07-13T08:34:55;1.90;;;1.55;;
61756;SDS011;57225;61.460;24.060;2023-07-13T08:37:39;1.95;;;1.70;;
61756;SDS011;57225;61.460;24.060;2023-07-13T08:40:24;3.83;;;1.20;;
61756;SDS011;57225;61.460;24.060;2023-07-13T08:43:16;3.78;;;1.50;;
61756;SDS011;57225;61.460;24.060;2023-07-13T08:46:17;1.98;;;1.60;;
61756;SDS011;57225;61.460;24.060;2023-07-13T08:49:11;3.30;;;1.50;;
61756;SDS011;57225;61.460;24.060;2023-07-13T08:52:04;2.28;;;1.60;;
61756;SDS011;57225;61.460;24.060;2023-07-13T08:55:12;1.73;;;1.40;;
61756;SDS011;57225;61.460;24.060;2023-07-13T08:58:14;3.67;;;1.60;;
61756;SDS011;57225;61.460;24.060;2023-07-13T09:01:16;3.40;;;1.50;;
61756;SDS011;57225;61.460;24.060;2023-07-13T09:04:09;5.65;;;1.70;;
61756;SDS011;57225;61.460;24.060;2023-07-13T09:10:19;3.05;;;1.70;;
61756;SDS011;57225;61.460;24.060;2023-07-13T09:16:04;3.13;;;1.80;;
61756;SDS011;57225;61.460;24.060;2023-07-13T09:18:50;2.97;;;1.70;;
61756;SDS011;57225;61.460;24.060;2023-07-13T09:21:39;2.72;;;1.80;;
61756;SDS011;57225;61.460;24.060;2023-07-13T09:27:53;3.05;;;1.60;;
61756;SDS011;57225;61.460;24.060;2023-07-13T09:30:49;1.98;;;1.67;;
61756;SDS011;57225;61.460;24.060;2023-07-13T09:33:56;3.47;;;1.60;;
61756;SDS011;57225;61.460;24.060;2023-07-13T09:36:42;1.77;;;1.33;;
61756;SDS011;57225;61.460;24.060;2023-07-13T09:39:33;5.47;;;1.88;;
61756;SDS011;57225;61.460;24.060;2023-07-13T09:42:22;4.18;;;1.70;;
61756;SDS011;57225;61.460;24.060;2023-07-13T09:45:06;3.50;;;1.90;;
61756;SDS011;57225;61.460;24.060;2023-07-13T09:47:58;1.92;;;1.60;;
61756;SDS011;57225;61.460;24.060;2023-07-13T09:50:44;3.17;;;1.67;;
61756;SDS011;57225;61.460;24.060;2023-07-13T09:53:28;4.88;;;1.63;;
61756;SDS011;57225;61.460;24.060;2023-07-13T09:56:21;2.22;;;1.70;;
61756;SDS011;57225;61.460;24.060;2023-07-13T09:59:17;2.08;;;1.80;;
61756;SDS011;57225;61.460;24.060;2023-07-13T10:02:16;2.25;;;1.65;;
61756;SDS011;57225;61.460;24.060;2023-07-13T10:05:11;1.70;;;1.60;;
61756;SDS011;57225;61.460;24.060;2023-07-13T10:08:00;5.05;;;1.75;;
61756;SDS011;57225;61.460;24.060;2023-07-13T10:10:45;4.35;;;1.50;;
61756;SDS011;57225;61.460;24.060;2023-07-13T10:13:33;2.83;;;1.98;;
61756;SDS011;57225;61.460;24.060;2023-07-13T10:16:24;7.25;;;1.80;;
61756;SDS011;57225;61.460;24.060;2023-07-13T10:19:12;2.80;;;1.70;;
61756;SDS011;57225;61.460;24.060;2023-07-13T10:25:26;5.32;;;1.70;;
61756;SDS011;57225;61.460;24.060;2023-07-13T10:28:31;3.88;;;1.75;;
61756;SDS011;57225;61.460;24.060;2023-07-13T10:31:21;1.83;;;1.60;;
61756;SDS011;57225;61.460;24.060;2023-07-13T10:34:10;3.25;;;1.77;;
61756;SDS011;57225;61.460;24.060;2023-07-13T10:36:55;4.57;;;2.13;;
61756;SDS011;57225;61.460;24.060;2023-07-13T10:39:40;1.95;;;1.60;;
61756;SDS011;57225;61.460;24.060;2023-07-13T10:42:44;2.47;;;1.80;;
61756;SDS011;57225;61.460;24.060;2023-07-13T10:45:31;4.38;;;1.90;;
61756;SDS011;57225;61.460;24.060;2023-07-13T10:48:19;3.03;;;1.50;;
61756;SDS011;57225;61.460;24.060;2023-07-13T10:51:06;2.08;;;1.42;;
61756;SDS011;57225;61.460;24.060;2023-07-13T10:57:17;5.47;;;1.90;;
61756;SDS011;57225;61.460;24.060;2023-07-13T11:00:14;2.13;;;1.55;;
61756;SDS011;57225;61.460;24.060;2023-07-13T11:03:01;4.40;;;1.60;;
61756;SDS011;57225;61.460;24.060;2023-07-13T11:05:48;2.42;;;1.55;;
61756;SDS011;57225;61.460;24.060;2023-07-13T11:11:32;1.60;;;1.50;;
61756;SDS011;57225;61.460;24.060;2023-07-13T11:17:34;3.22;;;1.60;;
61756;SDS011;57225;61.460;24.060;2023-07-13T11:20:22;2.95;;;1.90;;
61756;SDS011;57225;61.460;24.060;2023-07-13T11:26:00;3.67;;;1.60;;
61756;SDS011;57225;61.460;24.060;2023-07-13T11:28:46;4.57;;;1.60;;
61756;SDS011;57225;61.460;24.060;2023-07-13T11:31:34;4.07;;;1.40;;
61756;SDS011;57225;61.460;24.060;2023-07-13T11:34:26;5.07;;;1.60;;
61756;SDS011;57225;61.460;24.060;2023-07-13T11:37:19;6.70;;;1.60;;
61756;SDS011;57225;61.460;24.060;2023-07-13T11:40:04;2.30;;;1.75;;
61756;SDS011;57225;61.460;24.060;2023-07-13T11:42:50;4.45;;;1.45;;
61756;SDS011;57225;61.460;24.060;2023-07-13T11:45:35;2.72;;;1.50;;
61756;SDS011;57225;61.460;24.060;2023-07-13T11:48:26;2.40;;;1.67;;
61756;SDS011;57225;61.460;24.060;2023-07-13T11:51:15;4.25;;;1.88;;
61756;SDS011;57225;61.460;24.060;2023-07-13T11:54:15;2.03;;;1.65;;
61756;SDS011;57225;61.460;24.060;2023-07-13T11:57:20;2.45;;;1.60;;
61756;SDS011;57225;61.460;24.060;2023-07-13T12:00:11;3.80;;;1.60;;
61756;SDS011;57225;61.460;24.060;2023-07-13T12:03:00;1.98;;;1.50;;
61756;SDS011;57225;61.460;24.060;2023-07-13T12:05:56;2.50;;;1.70;;
61756;SDS011;57225;61.460;24.060;2023-07-13T12:08:41;5.05;;;1.88;;
61756;SDS011;57225;61.460;24.060;2023-07-13T12:11:26;6.03;;;2.00;;
61756;SDS011;57225;61.460;24.060;2023-07-13T12:14:15;3.88;;;1.77;;
61756;SDS011;57225;61.460;24.060;2023-07-13T12:17:00;3.78;;;1.77;;
61756;SDS011;57225;61.460;24.060;2023-07-13T12:19:45;3.20;;;1.80;;
61756;SDS011;57225;61.460;24.060;2023-07-13T12:22:30;4.35;;;1.77;;
61756;SDS011;57225;61.460;24.060;2023-07-13T12:25:15;6.05;;;1.70;;
61756;SDS011;57225;61.460;24.060;2023-07-13T12:28:01;2.95;;;1.83;;
61756;SDS011;57225;61.460;24.060;2023-07-13T12:31:24;2.45;;;1.80;;
61756;SDS011;57225;61.460;24.060;2023-07-13T12:34:22;1.90;;;1.60;;
61756;SDS011;57225;61.460;24.060;2023-07-13T12:37:11;2.38;;;1.50;;
61756;SDS011;57225;61.460;24.060;2023-07-13T12:39:58;3.45;;;1.70;;
61756;SDS011;57225;61.460;24.060;2023-07-13T12:42:43;5.50;;;1.80;;
61756;SDS011;57225;61.460;24.060;2023-07-13T12:45:27;2.03;;;1.42;;
61756;SDS011;57225;61.460;24.060;2023-07-13T12:48:16;4.28;;;1.80;;
61756;SDS011;57225;61.460;24.060;2023-07-13T12:51:01;2.70;;;1.77;;
61756;SDS011;57225;61.460;24.060;2023-07-13T12:53:49;3.33;;;1.63;;
61756;SDS011;57225;61.460;24.060;2023-07-13T12:56:40;4.53;;;1.70;;
61756;SDS011;57225;61.460;24.060;2023-07-13T12:59:27;3.70;;;1.92;;
61756;SDS011;57225;61.460;24.060;2023-07-13T13:05:10;4.20;;;1.85;;
61756;SDS011;57225;61.460;24.060;2023-07-13T13:07:58;2.40;;;1.60;;
61756;SDS011;57225;61.460;24.060;2023-07-13T13:10:42;1.83;;;1.48;;
61756;SDS011;57225;61.460;24.060;2023-07-13T13:13:27;4.72;;;1.90;;
61756;SDS011;57225;61.460;24.060;2023-07-13T13:16:34;2.47;;;1.98;;
61756;SDS011;57225;61.460;24.060;2023-07-13T13:19:23;2.78;;;1.65;;
61756;SDS011;57225;61.460;24.060;2023-07-13T13:22:09;3.55;;;1.75;;
61756;SDS011;57225;61.460;24.060;2023-07-13T13:24:57;3.47;;;1.52;;
61756;SDS011;57225;61.460;24.060;2023-07-13T13:27:59;3.30;;;1.70;;
61756;SDS011;57225;61.460;24.060;2023-07-13T13:30:45;3.85;;;1.80;;
61756;SDS011;57225;61.460;24.060;2023-07-13T13:33:31;3.95;;;1.70;;
61756;SDS011;57225;61.460;24.060;2023-07-13T13:36:17;2.03;;;1.63;;
61756;SDS011;57225;61.460;24.060;2023-07-13T13:39:05;3.75;;;1.70;;
61756;SDS011;57225;61.460;24.060;2023-07-13T13:42:08;2.88;;;1.63;;
61756;SDS011;57225;61.460;24.060;2023-07-13T13:44:54;4.50;;;1.70;;
61756;SDS011;57225;61.460;24.060;2023-07-13T13:47:40;1.90;;;1.70;;
61756;SDS011;57225;61.460;24.060;2023-07-13T13:50:25;2.63;;;1.77;;
61756;SDS011;57225;61.460;24.060;2023-07-13T13:53:15;2.95;;;1.73;;
61756;SDS011;57225;61.460;24.060;2023-07-13T13:56:13;2.42;;;1.75;;
61756;SDS011;57225;61.460;24.060;2023-07-13T13:58:58;3.78;;;1.50;;
61756;SDS011;57225;61.460;24.060;2023-07-13T14:01:43;3.40;;;1.90;;
61756;SDS011;57225;61.460;24.060;2023-07-13T14:04:32;2.85;;;1.70;;
61756;SDS011;57225;61.460;24.060;2023-07-13T14:07:17;3.58;;;1.75;;
61756;SDS011;57225;61.460;24.060;2023-07-13T14:10:01;5.07;;;2.00;;
61756;SDS011;57225;61.460;24.060;2023-07-13T14:12:47;3.50;;;1.65;;
61756;SDS011;57225;61.460;24.060;2023-07-13T14:15:35;2.95;;;1.70;;
61756;SDS011;57225;61.460;24.060;2023-07-13T14:18:19;5.35;;;1.75;;
61756;SDS011;57225;61.460;24.060;2023-07-13T14:21:08;2.80;;;1.92;;
61756;SDS011;57225;61.460;24.060;2023-07-13T14:23:56;4.00;;;1.80;;
61756;SDS011;57225;61.460;24.060;2023-07-13T14:26:40;2.95;;;1.77;;
61756;SDS011;57225;61.460;24.060;2023-07-13T14:29:26;2.85;;;1.67;;
61756;SDS011;57225;61.460;24.060;2023-07-13T14:32:11;4.43;;;1.85;;
61756;SDS011;57225;61.460;24.060;2023-07-13T14:34:56;2.90;;;1.80;;
61756;SDS011;57225;61.460;24.060;2023-07-13T14:37:41;3.78;;;1.70;;
61756;SDS011;57225;61.460;24.060;2023-07-13T14:40:28;2.95;;;1.88;;
61756;SDS011;57225;61.460;24.060;2023-07-13T14:43:14;3.08;;;1.80;;
61756;SDS011;57225;61.460;24.060;2023-07-13T14:46:00;8.15;;;1.90;;
61756;SDS011;57225;61.460;24.060;2023-07-13T14:48:46;4.75;;;1.95;;
61756;SDS011;57225;61.460;24.060;2023-07-13T14:51:30;3.35;;;2.03;;
61756;SDS011;57225;61.460;24.060;2023-07-13T14:54:17;3.50;;;2.00;;
61756;SDS011;57225;61.460;24.060;2023-07-13T14:57:01;4.72;;;1.80;;
61756;SDS011;57225;61.460;24.060;2023-07-13T14:59:46;4.38;;;1.83;;
61756;SDS011;57225;61.460;24.060;2023-07-13T15:02:33;3.70;;;2.00;;
61756;SDS011;57225;61.460;24.060;2023-07-13T15:05:22;4.68;;;2.15;;
61756;SDS011;57225;61.460;24.060;2023-07-13T15:08:11;2.95;;;1.98;;
61756;SDS011;57225;61.460;24.060;2023-07-13T15:10:56;4.47;;;1.90;;
61756;SDS011;57225;61.460;24.060;2023-07-13T15:13:44;4.07;;;1.90;;
61756;SDS011;57225;61.460;24.060;2023-07-13T15:16:32;3.08;;;1.90;;
61756;SDS011;57225;61.460;24.060;2023-07-13T15:19:18;3.00;;;2.17;;
61756;SDS011;57225;61.460;24.060;2023-07-13T15:22:04;3.90;;;2.13;;
61756;SDS011;57225;61.460;24.060;2023-07-13T15:24:49;4.18;;;2.78;;
61756;SDS011;57225;61.460;24.060;2023-07-13T15:28:05;7.55;;;2.20;;
61756;SDS011;57225;61.460;24.060;2023-07-13T15:30:49;7.97;;;2.33;;
61756;SDS011;57225;61.460;24.060;2023-07-13T15:33:34;3.15;;;2.08;;
61756;SDS011;57225;61.460;24.060;2023-07-13T15:36:21;6.50;;;2.00;;
61756;SDS011;57225;61.460;24.060;2023-07-13T15:39:06;3.65;;;2.30;;
61756;SDS011;57225;61.460;24.060;2023-07-13T15:41:54;11.15;;;2.50;;
61756;SDS011;57225;61.460;24.060;2023-07-13T15:44:38;7.82;;;2.28;;
61756;SDS011;57225;61.460;24.060;2023-07-13T15:47:23;7.03;;;2.25;;
61756;SDS011;57225;61.460;24.060;2023-07-13T15:50:10;9.95;;;2.05;;
61756;SDS011;57225;61.460;24.060;2023-07-13T15:52:56;3.53;;;1.90;;
61756;SDS011;57225;61.460;24.060;2023-07-13T15:56:11;2.80;;;1.90;;
61756;SDS011;57225;61.460;24.060;2023-07-13T15:59:08;3.38;;;1.90;;
61756;SDS011;57225;61.460;24.060;2023-07-13T16:01:56;2.90;;;1.60;;
61756;SDS011;57225;61.460;24.060;2023-07-13T16:04:41;7.57;;;2.00;;
61756;SDS011;57225;61.460;24.060;2023-07-13T16:07:25;5.82;;;1.90;;
61756;SDS011;57225;61.460;24.060;2023-07-13T16:10:21;5.47;;;1.90;;
61756;SDS011;57225;61.460;24.060;2023-07-13T16:13:14;4.78;;;1.95;;
61756;SDS011;57225;61.460;24.060;2023-07-13T16:16:01;4.05;;;2.00;;
61756;SDS011;57225;61.460;24.060;2023-07-13T16:18:45;6.72;;;1.90;;
61756;SDS011;57225;61.460;24.060;2023-07-13T16:21:41;6.28;;;2.38;;
61756;SDS011;57225;61.460;24.060;2023-07-13T16:24:27;5.05;;;2.20;;
61756;SDS011;57225;61.460;24.060;2023-07-13T16:27:11;2.60;;;1.80;;
61756;SDS011;57225;61.460;24.060;2023-07-13T16:29:56;7.38;;;2.35;;
61756;SDS011;57225;61.460;24.060;2023-07-13T16:32:42;8.43;;;2.00;;
61756;SDS011;57225;61.460;24.060;2023-07-13T16:35:27;4.20;;;1.80;;
61756;SDS011;57225;61.460;24.060;2023-07-13T16:38:15;10.63;;;2.70;;
61756;SDS011;57225;61.460;24.060;2023-07-13T16:41:01;3.88;;;1.85;;
61756;SDS011;57225;61.460;24.060;2023-07-13T16:43:47;3.80;;;2.00;;
61756;SDS011;57225;61.460;24.060;2023-07-13T16:46:32;3.90;;;2.10;;
61756;SDS011;57225;61.460;24.060;2023-07-13T16:49:21;4.22;;;2.28;;
61756;SDS011;57225;61.460;24.060;2023-07-13T16:52:09;4.22;;;2.20;;
61756;SDS011;57225;61.460;24.060;2023-07-13T16:54:55;3.13;;;1.98;;
61756;SDS011;57225;61.460;24.060;2023-07-13T16:57:41;5.55;;;2.10;;
61756;SDS011;57225;61.460;24.060;2023-07-13T17:00:28;4.75;;;1.83;;
61756;SDS011;57225;61.460;24.060;2023-07-13T17:03:14;3.20;;;1.90;;
61756;SDS011;57225;61.460;24.060;2023-07-13T17:05:58;5.55;;;2.10;;